Time;durP1;ratioP1;P1;durP2;ratioP2;P2;SDS_P1;SDS_P2;PMS_P1;PMS_P2;Temp;Humidity;BMP_temperature;BMP_pressure;BME280_temperature;BME280_humidity;BME280_pressure;Samples;Min_cycle;Max_cycle;Signal;HPM_P1;HPM_P2
2023/05/13 00:01:18;;;;;;;0.57;0.57;;;;;;;7.44;78.37;97517.13;5005928;28;20057;-57
2023/05/13 00:03:45;;;;;;;0.60;0.60;;;;;;;6.61;78.22;97438.44;5004293;28;20137;-56
2023/05/13 00:06:12;;;;;;;0.60;0.60;;;;;;;7.05;79.48;97514.84;5006479;28;20106;-57
2023/05/13 00:08:39;;;;;;;0.60;0.60;;;;;;;7.04;79.42;97507.75;5006124;28;20046;-56
2023/05/13 00:11:06;;;;;;;0.50;0.50;;;;;;;7.33;78.30;97521.41;5005623;28;20112;-57
2023/05/13 00:13:33;;;;;;;0.60;0.60;;;;;;;7.36;79.39;97523.53;5006147;28;20120;-57
2023/05/13 00:15:59;;;;;;;0.50;0.50;;;;;;;7.26;79.26;97523.94;5005955;28;20437;-57
2023/05/13 00:18:26;;;;;;;0.60;0.60;;;;;;;7.28;78.17;97529.91;5005874;28;20060;-57
2023/05/13 00:20:53;;;;;;;0.60;0.60;;;;;;;7.23;78.33;97521.84;5006145;28;20046;-56
2023/05/13 00:23:20;;;;;;;0.60;0.60;;;;;;;7.19;79.57;97520.09;5025342;28;20915;-56
2023/05/13 00:25:46;;;;;;;0.60;0.60;;;;;;;7.12;79.51;97523.41;5025598;28;20504;-57
2023/05/13 00:28:13;;;;;;;0.60;0.60;;;;;;;7.12;79.43;97537.19;5025507;28;20148;-56
2023/05/13 00:30:44;;;;;;;0.60;0.60;;;;;;;7.16;79.50;97527.09;5024101;28;20534;-58
2023/05/13 00:33:11;;;;;;;0.60;0.60;;;;;;;7.22;78.81;97531.25;5025774;28;20050;-57
2023/05/13 00:35:38;;;;;;;0.55;0.55;;;;;;;6.74;79.34;97481.41;5024915;28;20106;-56
2023/05/13 00:38:05;;;;;;;0.60;0.60;;;;;;;6.49;79.76;97463.13;5024163;28;20057;-56
2023/05/13 00:40:36;;;;;;;0.50;0.50;;;;;;;6.86;80.05;97533.78;5023633;28;20056;-56
2023/05/13 00:43:02;;;;;;;0.60;0.60;;;;;;;6.80;80.34;97524.13;5024948;28;20504;-56
2023/05/13 00:45:30;;;;;;;0.50;0.50;;;;;;;7.02;79.11;97510.03;5025038;28;20049;-57
2023/05/13 00:47:57;;;;;;;0.50;0.50;;;;;;;6.95;80.35;97520.78;5025236;28;20087;-56
2023/05/13 00:50:24;;;;;;;0.50;0.50;;;;;;;6.77;80.60;97530.28;5024744;28;20053;-56
2023/05/13 00:52:51;;;;;;;0.50;0.50;;;;;;;6.66;81.17;97512.56;5025237;28;20327;-56
2023/05/13 00:55:17;;;;;;;0.57;0.57;;;;;;;5.33;81.25;97303.63;5024635;28;20061;-58
2023/05/13 00:57:44;;;;;;;0.50;0.50;;;;;;;6.80;80.57;97518.59;5024938;28;20041;-56
2023/05/13 01:00:11;;;;;;;0.50;0.50;;;;;;;5.47;80.18;97337.22;5007085;28;20142;-58
2023/05/13 01:03:01;;;;;;;0.50;0.50;;;;;;;6.73;80.18;97517.53;5024700;28;20076;-58
2023/05/13 01:05:53;;;;;;;0.60;0.60;;;;;;;6.80;79.68;97524.13;5024587;28;20484;-56
2023/05/13 01:09:13;;;;;;;0.50;0.50;;;;;;;6.62;80.63;97522.63;5025265;28;20063;-56
2023/05/13 01:11:41;;;;;;;0.50;0.50;;;;;;;6.47;81.84;97520.44;5025122;28;20350;-56
2023/05/13 01:14:18;;;;;;;0.50;0.50;;;;;;;6.46;82.31;97524.34;5041927;28;20092;-58
2023/05/13 01:16:58;;;;;;;0.50;0.50;;;;;;;5.95;81.94;97458.56;5022755;28;20056;-57
2023/05/13 01:19:37;;;;;;;0.60;0.60;;;;;;;6.50;82.42;97535.47;5024956;28;20280;-56
2023/05/13 01:22:05;;;;;;;0.50;0.50;;;;;;;6.26;81.05;97481.06;5025099;28;20057;-56
2023/05/13 01:24:32;;;;;;;0.60;0.60;;;;;;;6.64;81.96;97525.84;5024532;28;20045;-57
2023/05/13 01:26:59;;;;;;;0.50;0.50;;;;;;;6.24;81.78;97483.34;5024914;28;20144;-56
2023/05/13 01:29:26;;;;;;;0.60;0.60;;;;;;;6.66;81.89;97548.34;5024561;28;20084;-57
2023/05/13 01:31:54;;;;;;;0.50;0.50;;;;;;;6.34;82.38;97502.22;5024610;28;20065;-57
2023/05/13 01:34:23;;;;;;;0.50;0.50;;;;;;;6.66;81.27;97545.59;5024280;28;20146;-56
2023/05/13 01:36:50;;;;;;;0.50;0.50;;;;;;;6.70;81.39;97549.28;5024045;28;20076;-57
2023/05/13 01:39:18;;;;;;;0.52;0.52;;;;;;;6.38;82.40;97521.63;5023020;28;20527;-55
2023/05/13 01:41:46;;;;;;;0.50;0.50;;;;;;;3.91;81.56;97120.50;5024437;28;20054;-57
2023/05/13 01:44:12;;;;;;;0.60;0.60;;;;;;;6.40;81.86;97498.16;5024421;28;20164;-56
2023/05/13 01:46:39;;;;;;;0.60;0.60;;;;;;;6.63;80.31;97528.91;5023618;28;20115;-56
2023/05/13 01:49:07;;;;;;;0.60;0.60;;;;;;;6.83;80.25;97553.72;5023870;28;20057;-56
2023/05/13 01:51:35;;;;;;;0.50;0.50;;;;;;;6.74;78.96;97530.97;5024295;28;20116;-56
2023/05/13 01:54:03;;;;;;;0.50;0.50;;;;;;;6.90;79.39;97556.78;5022649;28;20107;-56
2023/05/13 01:56:29;;;;;;;0.50;0.50;;;;;;;6.92;78.30;97553.69;5024175;28;20041;-56
2023/05/13 01:58:56;;;;;;;0.52;0.52;;;;;;;6.83;78.89;97561.22;5022583;28;20111;-56
2023/05/13 02:01:22;;;;;;;0.60;0.60;;;;;;;6.63;79.42;97562.78;5022511;28;20990;-56
2023/05/13 02:03:49;;;;;;;0.57;0.57;;;;;;;6.19;79.28;97486.28;5023905;28;20076;-55
2023/05/13 02:06:16;;;;;;;0.60;0.60;;;;;;;6.36;79.86;97530.22;5024079;28;20057;-57
2023/05/13 02:08:42;;;;;;;0.57;0.57;;;;;;;6.64;80.79;97569.88;5023605;28;20072;-57
2023/05/13 02:11:09;;;;;;;0.60;0.60;;;;;;;6.50;80.76;97563.78;5023762;28;20055;-58
2023/05/13 02:13:35;;;;;;;0.60;0.60;;;;;;;6.32;81.65;97532.03;5022871;28;20057;-56
2023/05/13 02:16:02;;;;;;;0.50;0.50;;;;;;;5.91;81.47;97468.63;5023656;28;20050;-56
2023/05/13 02:18:29;;;;;;;0.50;0.50;;;;;;;6.39;82.55;97557.06;5024212;28;20053;-56
2023/05/13 02:20:56;;;;;;;0.50;0.50;;;;;;;6.32;82.09;97555.97;5023765;28;20053;-57
2023/05/13 02:23:23;;;;;;;0.40;0.40;;;;;;;6.42;81.27;97550.09;5022726;28;20046;-57
2023/05/13 02:25:49;;;;;;;0.50;0.50;;;;;;;6.34;81.46;97545.44;5022442;28;20131;-55
2023/05/13 02:28:16;;;;;;;0.50;0.50;;;;;;;6.02;81.65;97491.88;5023818;28;20045;-56
2023/05/13 02:30:42;;;;;;;0.50;0.50;;;;;;;6.36;81.92;97541.22;5021832;28;20057;-59
2023/05/13 02:33:09;;;;;;;0.50;0.50;;;;;;;6.36;82.18;97546.72;5022159;28;20041;-56
2023/05/13 02:35:36;;;;;;;0.50;0.50;;;;;;;6.19;83.02;97519.28;5021948;28;20571;-57
2023/05/13 02:38:03;;;;;;;0.50;0.50;;;;;;;5.89;83.10;97481.88;5023630;28;20600;-55
2023/05/13 02:40:29;;;;;;;0.50;0.50;;;;;;;5.91;85.14;97534.59;5022114;28;20053;-56
2023/05/13 02:42:56;;;;;;;0.50;0.50;;;;;;;6.06;85.18;97542.31;5023137;28;20639;-55
2023/05/13 02:45:23;;;;;;;0.50;0.50;;;;;;;5.49;84.30;97455.78;5022075;28;20053;-56
2023/05/13 02:47:49;;;;;;;0.50;0.50;;;;;;;6.00;83.84;97549.13;5022632;28;20045;-55
2023/05/13 02:50:16;;;;;;;0.50;0.50;;;;;;;5.84;85.58;97539.78;5022444;28;20080;-56
2023/05/13 02:52:43;;;;;;;0.50;0.50;;;;;;;6.02;83.78;97544.13;5023320;28;20081;-56
2023/05/13 02:55:10;;;;;;;0.50;0.50;;;;;;;5.96;83.26;97559.16;5023476;28;20126;-55
2023/05/13 02:57:36;;;;;;;0.50;0.50;;;;;;;5.95;83.64;97547.38;5024785;28;20077;-56
2023/05/13 03:00:04;;;;;;;0.50;0.50;;;;;;;5.83;85.30;97551.94;5025963;28;20503;-56
2023/05/13 03:02:32;;;;;;;0.50;0.50;;;;;;;5.59;83.73;97510.41;5026682;28;20493;-56
2023/05/13 03:04:59;;;;;;;0.50;0.50;;;;;;;6.07;82.79;97571.41;5025740;28;20049;-56
2023/05/13 03:07:26;;;;;;;0.50;0.50;;;;;;;6.00;82.73;97568.38;5026469;28;20049;-56
2023/05/13 03:09:52;;;;;;;0.55;0.55;;;;;;;6.01;84.09;97568.03;5026974;28;20129;-56
2023/05/13 03:12:19;;;;;;;0.50;0.50;;;;;;;6.03;84.01;97576.78;5026606;28;20057;-56
2023/05/13 03:14:46;;;;;;;0.50;0.50;;;;;;;6.06;84.04;97580.81;5025506;28;20053;-56
2023/05/13 03:17:13;;;;;;;0.50;0.50;;;;;;;6.03;82.68;97570.47;5026787;28;20073;-56
2023/05/13 03:19:39;;;;;;;0.50;0.50;;;;;;;6.23;81.97;97586.25;5026846;28;20095;-57
2023/05/13 03:22:06;;;;;;;0.50;0.50;;;;;;;6.15;81.92;97595.31;5025205;28;20061;-56
2023/05/13 03:24:33;;;;;;;0.50;0.50;;;;;;;6.12;82.94;97596.00;5016630;28;20108;-56
2023/05/13 03:27:00;;;;;;;0.50;0.50;;;;;;;6.25;84.00;97594.97;5006349;28;20468;-55
2023/05/13 03:29:26;;;;;;;0.50;0.50;;;;;;;6.11;82.43;97567.69;5006752;28;20054;-56
2023/05/13 03:31:53;;;;;;;0.50;0.50;;;;;;;6.32;82.24;97600.78;5009557;28;20049;-55
2023/05/13 03:34:19;;;;;;;0.60;0.60;;;;;;;6.24;83.15;97603.56;5023094;28;20735;-55
2023/05/13 03:36:46;;;;;;;0.50;0.50;;;;;;;6.36;83.57;97601.75;5022634;28;20049;-58
2023/05/13 03:39:13;;;;;;;0.50;0.50;;;;;;;6.35;83.12;97600.13;5023074;28;20073;-55
2023/05/13 03:41:39;;;;;;;0.52;0.52;;;;;;;6.56;82.58;97598.25;5022724;28;20128;-58
2023/05/13 03:44:06;;;;;;;0.60;0.60;;;;;;;6.56;82.05;97587.22;5023003;28;20049;-56
2023/05/13 03:46:33;;;;;;;0.50;0.50;;;;;;;6.70;81.71;97618.09;5022552;28;20056;-57
2023/05/13 03:48:59;;;;;;;0.60;0.60;;;;;;;6.63;81.93;97606.81;5023131;28;20795;-56
2023/05/13 03:51:26;;;;;;;0.50;0.50;;;;;;;6.89;80.54;97593.69;5022428;28;20440;-56
2023/05/13 03:53:52;;;;;;;0.50;0.50;;;;;;;6.78;81.21;97608.97;5022985;28;20060;-56
2023/05/13 03:56:20;;;;;;;0.50;0.50;;;;;;;7.05;80.15;97608.50;5022736;28;20075;-59
2023/05/13 03:58:47;;;;;;;0.60;0.60;;;;;;;7.18;78.45;97607.44;5023412;28;20088;-55
2023/05/13 04:01:13;;;;;;;0.60;0.60;;;;;;;7.21;78.87;97605.97;5022897;28;20265;-57
2023/05/13 04:03:43;;;;;;;0.50;0.50;;;;;;;7.35;78.09;97618.34;5017923;28;20049;-55
2023/05/13 04:06:09;;;;;;;0.63;0.63;;;;;;;7.51;77.79;97622.13;5001771;28;20049;-55
2023/05/13 04:08:36;;;;;;;0.60;0.60;;;;;;;7.72;77.44;97611.91;5005258;28;20502;-55
2023/05/13 04:11:03;;;;;;;0.60;0.60;;;;;;;7.89;76.62;97621.16;5006112;28;20809;-55
2023/05/13 04:13:29;;;;;;;0.60;0.60;;;;;;;8.19;75.09;97612.38;5006244;28;20452;-57
2023/05/13 04:15:56;;;;;;;0.63;0.63;;;;;;;8.31;73.29;97611.66;5006190;28;20053;-55
2023/05/13 04:18:23;;;;;;;0.60;0.60;;;;;;;8.55;73.80;97606.19;5005869;28;20751;-55
2023/05/13 04:20:50;;;;;;;0.68;0.68;;;;;;;8.62;73.55;97606.41;5005809;28;20132;-56
2023/05/13 04:23:16;;;;;;;0.60;0.60;;;;;;;8.79;73.81;97601.47;5018092;28;20049;-56
2023/05/13 04:25:50;;;;;;;0.70;0.70;;;;;;;8.77;73.57;97586.41;5025543;28;20056;-57
2023/05/13 04:28:17;;;;;;;0.80;0.80;;;;;;;9.14;71.74;97607.31;5025282;28;20085;-56
2023/05/13 04:30:44;;;;;;;0.70;0.70;;;;;;;9.17;70.84;97617.69;5025180;28;20137;-59
2023/05/13 04:33:10;;;;;;;0.70;0.70;;;;;;;9.13;71.25;97619.53;5025142;28;20084;-57
2023/05/13 04:35:37;;;;;;;0.70;0.70;;;;;;;9.31;70.99;97620.88;5023987;28;20061;-55
2023/05/13 04:38:04;;;;;;;0.70;0.70;;;;;;;9.30;71.00;97627.56;5023776;28;20080;-57
2023/05/13 04:40:31;;;;;;;0.70;0.70;;;;;;;9.18;71.50;97597.19;5025246;28;20570;-56
2023/05/13 04:42:57;;;;;;;0.80;0.80;;;;;;;9.32;71.14;97622.50;5025377;28;20128;-56
2023/05/13 04:45:24;;;;;;;0.63;0.63;;;;;;;9.33;71.24;97626.88;5025285;28;20049;-56
2023/05/13 04:47:51;;;;;;;0.70;0.70;;;;;;;9.39;69.88;97619.16;5024801;28;20045;-55
2023/05/13 04:50:18;;;;;;;0.80;0.80;;;;;;;9.42;69.46;97619.25;5024910;28;20049;-56
2023/05/13 04:52:46;;;;;;;0.77;0.77;;;;;;;9.28;68.19;97558.00;5024927;28;20064;-57
2023/05/13 04:55:13;;;;;;;0.70;0.70;;;;;;;9.72;69.04;97612.25;5023451;28;20053;-57
2023/05/13 04:57:39;;;;;;;0.70;0.70;;;;;;;9.89;68.77;97616.72;5023724;28;20130;-56
2023/05/13 05:00:08;;;;;;;0.70;0.70;;;;;;;9.91;67.77;97626.25;5025199;28;20478;-57
2023/05/13 05:02:34;;;;;;;0.80;0.80;;;;;;;9.68;67.59;97580.13;5024982;28;20075;-56
2023/05/13 05:05:02;;;;;;;0.80;0.80;;;;;;;10.23;66.50;97639.06;5024537;28;20080;-56
2023/05/13 05:07:28;;;;;;;0.80;0.80;;;;;;;10.40;65.50;97641.50;5025078;28;20057;-57
2023/05/13 05:09:55;;;;;;;0.80;0.80;;;;;;;10.58;64.22;97623.41;5024825;28;20065;-59
2023/05/13 05:12:22;;;;;;;0.90;0.90;;;;;;;10.57;62.31;97596.06;5024507;28;20146;-57
2023/05/13 05:14:49;;;;;;;0.88;0.88;;;;;;;10.62;61.89;97618.75;5024535;28;20056;-57
2023/05/13 05:17:15;;;;;;;0.90;0.90;;;;;;;10.95;62.30;97637.81;5024805;28;20049;-56
2023/05/13 05:19:42;;;;;;;0.90;0.90;;;;;;;11.23;61.35;97637.69;5024603;28;20081;-57
2023/05/13 05:22:09;;;;;;;0.90;0.90;;;;;;;11.31;61.08;97633.94;5024162;28;20083;-57
2023/05/13 05:24:35;;;;;;;0.80;0.80;;;;;;;10.88;60.60;97539.81;5024710;28;20136;-56
2023/05/13 05:27:02;;;;;;;0.90;0.90;;;;;;;11.20;60.74;97560.78;5022752;28;20508;-60
2023/05/13 05:29:29;;;;;;;1.00;1.00;;;;;;;11.28;60.71;97523.72;5024576;28;20077;-57
2023/05/13 05:31:55;;;;;;;1.00;1.00;;;;;;;12.40;60.66;97631.56;5024667;28;20397;-57
2023/05/13 05:34:22;;;;;;;1.10;1.10;;;;;;;12.70;58.52;97635.31;5023974;28;20045;-57
2023/05/13 05:36:49;;;;;;;1.00;1.00;;;;;;;13.03;58.56;97643.88;5022917;28;20501;-57
2023/05/13 05:39:15;;;;;;;1.10;1.10;;;;;;;12.30;58.26;97465.47;5024137;28;20050;-57
2023/05/13 05:41:42;;;;;;;1.10;1.10;;;;;;;13.67;56.67;97643.69;5024633;28;20088;-59
2023/05/13 05:44:09;;;;;;;1.15;1.15;;;;;;;13.84;53.88;97645.13;5022300;28;20502;-57
2023/05/13 05:46:35;;;;;;;1.20;1.20;;;;;;;13.91;53.05;97650.78;5024758;28;20103;-57
2023/05/13 05:49:02;;;;;;;1.20;1.20;;;;;;;13.85;53.31;97646.72;5024131;28;20123;-57
2023/05/13 05:51:29;;;;;;;1.20;1.20;;;;;;;13.43;53.34;97570.97;5024277;28;20045;-57
2023/05/13 05:53:55;;;;;;;1.23;1.23;;;;;;;13.75;53.97;97635.44;5024339;28;20188;-58
2023/05/13 05:56:22;;;;;;;1.20;1.20;;;;;;;12.80;57.40;97651.38;5022288;28;20045;-57
2023/05/13 05:58:49;;;;;;;1.10;1.10;;;;;;;12.69;57.77;97639.28;5022536;28;20088;-60
2023/05/13 06:01:15;;;;;;;1.10;1.10;;;;;;;12.51;58.07;97590.88;5023468;28;20530;-57
2023/05/13 06:03:42;;;;;;;1.20;1.20;;;;;;;13.34;56.65;97649.16;5021770;28;20057;-58
2023/05/13 06:06:09;;;;;;;1.00;1.00;;;;;;;13.43;56.75;97657.25;5020596;28;20049;-57
2023/05/13 06:08:36;;;;;;;1.17;1.17;;;;;;;13.29;57.29;97655.03;5020660;28;20053;-57
2023/05/13 06:11:02;;;;;;;1.20;1.20;;;;;;;13.29;55.76;97618.84;5022250;28;20065;-57
2023/05/13 06:13:29;;;;;;;1.10;1.10;;;;;;;14.02;53.53;97650.94;5021973;28;20085;-57
2023/05/13 06:15:55;;;;;;;1.27;1.27;;;;;;;14.50;51.80;97656.34;5022157;28;20143;-58
2023/05/13 06:18:22;;;;;;;1.20;1.20;;;;;;;14.15;48.86;97543.63;5022635;28;20064;-58
2023/05/13 06:20:49;;;;;;;1.30;1.30;;;;;;;14.89;47.62;97606.56;5022033;28;20107;-58
2023/05/13 06:23:15;;;;;;;1.40;1.40;;;;;;;15.35;47.46;97590.97;5022681;28;20150;-57
2023/05/13 06:25:42;;;;;;;1.20;1.20;;;;;;;15.85;47.39;97632.06;5023246;28;20049;-57
2023/05/13 06:28:09;;;;;;;1.33;1.33;;;;;;;15.91;47.12;97630.47;5023803;28;20049;-58
2023/05/13 06:30:37;;;;;;;1.70;1.70;;;;;;;15.41;46.33;97581.09;5021887;28;20058;-57
2023/05/13 06:33:04;;;;;;;1.33;1.33;;;;;;;15.66;45.11;97635.13;5024608;28;20061;-55
2023/05/13 06:35:31;;;;;;;1.42;1.42;;;;;;;15.14;47.49;97629.91;5027310;28;20050;-56
2023/05/13 06:37:57;;;;;;;1.30;1.30;;;;;;;14.94;48.98;97637.69;5027509;28;20480;-57
2023/05/13 06:40:24;;;;;;;1.30;1.30;;;;;;;15.21;46.27;97590.88;5027353;28;20088;-56
2023/05/13 06:42:50;;;;;;;1.60;1.60;;;;;;;15.87;46.27;97640.03;5027145;28;20093;-58
2023/05/13 06:45:21;;;;;;;1.50;1.50;;;;;;;16.30;46.07;97645.44;5027300;28;20046;-56
2023/05/13 06:47:52;;;;;;;1.70;1.70;;;;;;;16.03;44.07;97649.69;5025902;28;20352;-56
2023/05/13 06:50:19;;;;;;;1.50;1.50;;;;;;;14.71;46.69;97572.13;5025587;28;20050;-58
2023/05/13 06:52:46;;;;;;;1.50;1.50;;;;;;;15.62;46.23;97656.63;5027368;28;20132;-57
2023/05/13 06:55:13;;;;;;;1.50;1.50;;;;;;;15.36;46.03;97584.22;5027378;28;20125;-59
2023/05/13 06:57:42;;;;;;;1.60;1.60;;;;;;;16.25;45.93;97640.22;5027549;28;20057;-56
2023/05/13 07:00:09;;;;;;;1.40;1.40;;;;;;;15.65;45.30;97649.47;5026911;28;20053;-55
2023/05/13 07:02:36;;;;;;;1.50;1.50;;;;;;;15.08;45.67;97595.16;5026484;28;20621;-57
2023/05/13 07:05:03;;;;;;;1.55;1.55;;;;;;;15.83;44.62;97651.19;5025347;28;20107;-57
2023/05/13 07:07:30;;;;;;;1.35;1.35;;;;;;;15.07;46.40;97657.75;5026656;28;20053;-56
2023/05/13 07:09:57;;;;;;;1.60;1.60;;;;;;;15.90;45.58;97654.00;5026799;28;20393;-58
2023/05/13 07:12:23;;;;;;;1.50;1.50;;;;;;;16.42;43.84;97597.53;5027172;28;20064;-57
2023/05/13 07:14:50;;;;;;;1.70;1.70;;;;;;;17.26;42.44;97643.72;5026687;28;20057;-57
2023/05/13 07:17:17;;;;;;;1.70;1.70;;;;;;;17.41;42.30;97642.50;5026751;28;20057;-60
2023/05/13 07:19:44;;;;;;;1.80;1.80;;;;;;;17.58;39.64;97633.31;5026412;28;20049;-57
2023/05/13 07:22:10;;;;;;;1.73;1.73;;;;;;;17.65;37.19;97645.34;5026316;28;20707;-57
2023/05/13 07:24:37;;;;;;;1.85;1.85;;;;;;;15.84;38.26;97353.84;5026959;28;20111;-57
2023/05/13 07:27:04;;;;;;;2.10;2.10;;;;;;;18.16;38.19;97642.03;5026617;28;20432;-57
2023/05/13 07:29:31;;;;;;;1.65;1.65;;;;;;;17.91;39.29;97638.47;5026779;28;20092;-59
2023/05/13 07:32:02;;;;;;;1.83;1.83;;;;;;;17.07;40.09;97638.50;5026449;28;20643;-56
2023/05/13 07:34:29;;;;;;;1.80;1.80;;;;;;;17.25;38.90;97574.88;5026936;28;20152;-57
2023/05/13 07:36:56;;;;;;;1.70;1.70;;;;;;;17.82;38.75;97613.69;5026470;28;20077;-57
2023/05/13 07:39:23;;;;;;;1.90;1.90;;;;;;;18.19;38.67;97635.59;5026221;28;20107;-59
2023/05/13 07:41:49;;;;;;;1.90;1.90;;;;;;;18.51;37.95;97633.47;5024484;28;20095;-59
2023/05/13 07:44:16;;;;;;;1.95;1.95;;;;;;;17.58;38.67;97614.50;5024965;28;20484;-57
2023/05/13 07:46:43;;;;;;;2.08;2.08;;;;;;;18.04;38.01;97625.63;5026130;28;20137;-58
2023/05/13 07:49:10;;;;;;;1.90;1.90;;;;;;;17.90;38.21;97611.66;5025745;28;20423;-57
2023/05/13 07:51:37;;;;;;;1.75;1.75;;;;;;;16.80;39.64;97592.47;5032142;28;20114;-57
2023/05/13 07:54:03;;;;;;;1.70;1.70;;;;;;;16.83;39.79;97591.69;5016629;28;20581;-57
2023/05/13 07:56:30;;;;;;;1.92;1.92;;;;;;;16.97;39.87;97630.88;5024007;28;20507;-57
2023/05/13 07:58:57;;;;;;;1.80;1.80;;;;;;;16.55;39.71;97565.25;5024737;28;20514;-66
2023/05/13 08:01:23;;;;;;;1.70;1.70;;;;;;;16.60;39.88;97634.00;5023043;28;20056;-66
2023/05/13 08:03:50;;;;;;;1.60;1.60;;;;;;;16.58;41.59;97586.06;5022050;28;20129;-67
2023/05/13 08:06:17;;;;;;;1.90;1.90;;;;;;;16.98;40.54;97610.06;5025038;28;20057;-65
2023/05/13 08:08:44;;;;;;;1.60;1.60;;;;;;;17.18;40.91;97602.91;5017955;28;20081;-64
2023/05/13 08:11:11;;;;;;;1.80;1.80;;;;;;;17.39;39.38;97608.47;5023678;28;20420;-65
2023/05/13 08:13:38;;;;;;;1.85;1.85;;;;;;;16.97;39.92;97608.47;5025774;28;20053;-65
2023/05/13 08:16:06;;;;;;;1.70;1.70;;;;;;;17.36;40.05;97604.50;5027711;28;20123;-65
2023/05/13 08:18:32;;;;;;;1.80;1.80;;;;;;;17.88;39.33;97591.63;5025235;28;20049;-65
2023/05/13 08:20:59;;;;;;;1.88;1.88;;;;;;;17.67;39.39;97591.69;5025382;28;20614;-63
2023/05/13 08:23:26;;;;;;;2.00;2.00;;;;;;;17.33;39.66;97545.69;5025428;28;20049;-66
2023/05/13 08:26:10;;;;;;;;;;;;;;;17.28;40.01;97610.50;5024267;28;20053;-65
2023/05/13 08:28:36;;;;;;;1.85;1.85;;;;;;;17.55;40.18;97604.13;5023220;28;19925;-65
2023/05/13 08:31:03;;;;;;;1.90;1.90;;;;;;;17.84;39.74;97602.06;5023242;28;20049;-65
2023/05/13 08:33:31;;;;;;;1.80;1.80;;;;;;;17.63;40.56;97610.50;5022872;28;20515;-65
2023/05/13 08:35:59;;;;;;;1.60;1.60;;;;;;;16.04;41.96;97589.03;5004326;28;20584;-64
2023/05/13 08:38:26;;;;;;;1.70;1.70;;;;;;;15.72;41.21;97477.13;5013842;28;20578;-60
2023/05/13 08:40:52;;;;;;;1.60;1.60;;;;;;;16.08;41.42;97607.41;5021143;28;20050;-65
2023/05/13 08:43:22;;;;;;;1.50;1.50;;;;;;;15.49;41.56;97490.59;5023074;28;20492;-66
2023/05/13 08:45:52;;;;;;;1.70;1.70;;;;;;;16.60;40.98;97612.41;5022780;28;20485;-69
2023/05/13 08:48:19;;;;;;;1.40;1.40;;;;;;;16.51;39.74;97541.28;5023332;28;20053;-58
2023/05/13 08:50:47;;;;;;;1.90;1.90;;;;;;;17.27;40.27;97603.31;5016003;28;20049;-60
2023/05/13 08:53:15;;;;;;;1.90;1.90;;;;;;;16.45;39.58;97493.31;5023018;28;20080;-58
2023/05/13 08:55:42;;;;;;;1.83;1.83;;;;;;;17.63;40.84;97579.69;5016746;28;20064;-67
2023/05/13 08:58:09;;;;;;;1.75;1.75;;;;;;;18.01;39.00;97596.41;5023490;28;20045;-56
2023/05/13 09:00:36;;;;;;;1.73;1.73;;;;;;;17.72;38.78;97549.25;5022907;28;20045;-56
2023/05/13 09:03:03;;;;;;;2.10;2.10;;;;;;;18.16;39.31;97585.94;5019959;28;20065;-71
2023/05/13 09:05:30;;;;;;;1.90;1.90;;;;;;;17.29;39.82;97595.31;5012469;28;20501;-56
2023/05/13 09:07:58;;;;;;;1.90;1.90;;;;;;;17.48;39.73;97550.09;5035219;28;20108;-56
2023/05/13 09:10:25;;;;;;;1.83;1.83;;;;;;;17.41;40.48;97561.28;5024658;28;20149;-57
2023/05/13 09:12:53;;;;;;;1.90;1.90;;;;;;;18.34;39.93;97575.44;5022504;28;20348;-57
2023/05/13 09:15:25;;;;;;;2.10;2.10;;;;;;;19.09;38.50;97587.81;5020189;28;20053;-66
2023/05/13 09:17:58;;;;;;;2.08;2.08;;;;;;;18.93;37.12;97576.31;5008713;28;20056;-62
2023/05/13 09:20:25;;;;;;;2.03;2.03;;;;;;;19.33;37.80;97586.88;5023583;28;20068;-59
2023/05/13 09:22:55;;;;;;;2.00;2.00;;;;;;;18.90;38.26;97580.75;5021702;28;20115;-57
2023/05/13 09:25:24;;;;;;;1.90;1.90;;;;;;;18.33;38.79;97579.44;5022188;28;20050;-62
2023/05/13 09:27:53;;;;;;;2.13;2.13;;;;;;;18.07;39.39;97583.56;5022701;28;20107;-65
2023/05/13 09:30:20;;;;;;;2.10;2.10;;;;;;;18.30;40.12;97574.66;5023845;28;20045;-59
2023/05/13 09:33:21;;;;;;;2.00;2.00;;;;;;;18.72;38.62;97560.41;5021192;28;20114;-67
2023/05/13 09:35:51;;;;;;;1.65;1.65;;;;;;;18.51;40.23;97568.16;5008094;28;20056;-64
2023/05/13 09:38:26;;;;;;;1.80;1.80;;;;;;;17.62;40.60;97561.28;5016785;28;20053;-57
2023/05/13 09:40:55;;;;;;;2.05;2.05;;;;;;;17.64;40.08;97564.47;5022035;28;20136;-62
2023/05/13 09:43:24;;;;;;;1.80;1.80;;;;;;;16.89;40.19;97483.75;5021816;28;20073;-64
2023/05/13 09:46:00;;;;;;;2.00;2.00;;;;;;;17.87;40.23;97568.41;5023557;28;20046;-56
2023/05/13 09:48:29;;;;;;;1.77;1.77;;;;;;;18.03;39.90;97560.34;5022629;28;20471;-65
2023/05/13 09:50:56;;;;;;;1.73;1.73;;;;;;;18.38;40.75;97553.81;5038517;28;20052;-60
2023/05/13 09:53:25;;;;;;;1.67;1.67;;;;;;;18.24;39.01;97548.22;5023706;28;20056;-57
2023/05/13 09:55:55;;;;;;;1.90;1.90;;;;;;;18.46;38.66;97552.56;5034892;28;20057;-58
2023/05/13 09:58:23;;;;;;;1.98;1.98;;;;;;;18.84;38.11;97542.28;5020459;28;20050;-61
2023/05/13 10:00:51;;;;;;;2.15;2.15;;;;;;;18.38;39.08;97539.78;5019427;28;20132;-59
2023/05/13 10:03:18;;;;;;;2.15;2.15;;;;;;;19.01;38.78;97536.53;5021772;28;20531;-61
2023/05/13 10:05:46;;;;;;;2.08;2.08;;;;;;;19.50;38.89;97530.50;5022483;28;20065;-59
2023/05/13 10:08:16;;;;;;;2.20;2.20;;;;;;;19.25;39.36;97513.03;5027344;28;20063;-62
2023/05/13 10:10:45;;;;;;;2.15;2.15;;;;;;;19.68;37.47;97523.88;5027537;28;20080;-58
2023/05/13 10:13:16;;;;;;;2.30;2.30;;;;;;;19.48;38.47;97541.34;5027794;28;20564;-64
2023/05/13 10:15:51;;;;;;;2.30;2.30;;;;;;;19.90;36.93;97520.38;5026250;28;20057;-64
2023/05/13 10:18:20;;;;;;;2.28;2.28;;;;;;;19.34;36.33;97448.78;5016784;28;20583;-65
2023/05/13 10:20:51;;;;;;;2.47;2.40;;;;;;;19.75;37.92;97563.16;5026219;28;20045;-59
2023/05/13 10:23:21;;;;;;;2.20;2.20;;;;;;;20.01;36.67;97565.28;5026691;28;20054;-58
2023/05/13 10:25:49;;;;;;;2.10;2.10;;;;;;;19.91;36.40;97560.56;5028239;28;20057;-62
2023/05/13 10:28:16;;;;;;;2.35;2.33;;;;;;;19.97;36.44;97558.88;5026912;28;20589;-58
2023/05/13 10:30:43;;;;;;;2.15;2.15;;;;;;;20.03;36.91;97551.59;5030240;28;20550;-58
2023/05/13 10:33:10;;;;;;;2.20;2.20;;;;;;;18.56;36.45;97341.22;5042757;28;20087;-63
2023/05/13 10:35:42;;;;;;;1.98;1.98;;;;;;;20.73;37.19;97545.84;5029359;28;20056;-59
2023/05/13 10:38:14;;;;;;;2.17;2.17;;;;;;;20.19;36.55;97535.75;5026173;28;20084;-62
2023/05/13 10:40:52;;;;;;;2.30;2.30;;;;;;;20.21;36.60;97529.69;5029556;28;20057;-63
2023/05/13 10:43:20;;;;;;;2.38;2.38;;;;;;;19.01;38.23;97536.53;5027165;28;20106;-56
2023/05/13 10:45:49;;;;;;;1.90;1.90;;;;;;;19.38;38.04;97525.38;5024575;28;20056;-60
2023/05/13 10:48:17;;;;;;;1.90;1.90;;;;;;;19.77;37.13;97521.38;5026851;28;20064;-60
2023/05/13 10:51:01;;;;;;;2.17;2.17;;;;;;;19.85;38.48;97525.69;5027352;28;20053;-61
2023/05/13 10:53:31;;;;;;;2.13;2.13;;;;;;;19.89;38.06;97524.44;5026853;28;20126;-60
2023/05/13 10:55:58;;;;;;;1.95;1.95;;;;;;;20.08;37.13;97537.06;5027871;28;20092;-57
2023/05/13 10:58:30;;;;;;;2.03;2.03;;;;;;;19.74;37.80;97533.44;5029259;28;20099;-58
2023/05/13 11:01:30;;;;;;;1.88;1.88;;;;;;;20.25;37.42;97525.59;5026389;28;20111;-60
2023/05/13 11:03:59;;;;;;;2.45;2.38;;;;;;;20.56;37.01;97515.13;5019987;28;20444;-59
2023/05/13 11:06:35;;;;;;;2.42;2.38;;;;;;;21.05;36.99;97505.94;5026325;28;20107;-56
2023/05/13 11:09:10;;;;;;;2.20;2.20;;;;;;;21.19;36.73;97505.69;5044660;28;20143;-57
2023/05/13 11:11:37;;;;;;;2.17;2.17;;;;;;;20.27;37.19;97432.34;5025373;28;20049;-66
2023/05/13 11:14:15;;;;;;;2.08;2.08;;;;;;;21.33;36.86;97511.09;5024651;28;20053;-58
2023/05/13 11:16:55;;;;;;;2.20;2.20;;;;;;;20.75;37.18;97492.69;5019852;28;20041;-57
2023/05/13 11:19:27;;;;;;;2.28;2.28;;;;;;;20.25;37.27;97522.78;5026309;28;20049;-57
2023/05/13 11:22:07;;;;;;;2.20;2.20;;;;;;;20.79;36.74;97509.53;5026267;28;20060;-62
2023/05/13 11:24:33;;;;;;;2.17;2.17;;;;;;;20.41;37.32;97517.34;5024756;28;20173;-57
2023/05/13 11:27:18;;;;;;;2.45;2.38;;;;;;;21.04;36.97;97521.22;5025383;28;20522;-57
2023/05/13 11:29:54;;;;;;;2.22;2.22;;;;;;;20.62;36.97;97455.13;5024422;28;20057;-63
2023/05/13 11:32:51;;;;;;;2.20;2.20;;;;;;;21.22;37.45;97510.47;5026127;28;20061;-64
2023/05/13 11:35:22;;;;;;;2.30;2.30;;;;;;;20.51;37.91;97487.47;5023651;28;20053;-61
2023/05/13 11:37:49;;;;;;;2.55;2.45;;;;;;;21.24;37.30;97491.13;5009082;28;20045;-57
2023/05/13 11:40:25;;;;;;;2.30;2.30;;;;;;;19.68;37.59;97231.53;5023579;28;20539;-56
2023/05/13 11:42:53;;;;;;;2.20;2.20;;;;;;;21.37;37.17;97494.88;5022735;28;20088;-60